Time;durP1;ratioP1;P1;durP2;ratioP2;P2;SDS_P1;SDS_P2;PMS_P1;PMS_P2;Temp;Humidity;BMP_temperature;BMP_pressure;BME280_temperature;BME280_humidity;BME280_pressure;Samples;Min_cycle;Max_cycle;Signal;HPM_P1;HPM_P2
2023/04/26 00:01:34;;;;;;;3.10;2.35;;;10.50;99.90;;;;;;5090909;27;20420;-72
2023/04/26 00:04:01;;;;;;;3.40;2.42;;;10.40;99.90;;;;;;5083803;27;20402;-72
2023/04/26 00:06:27;;;;;;;5.72;2.60;;;10.40;99.90;;;;;;5076688;28;20890;-72
2023/04/26 00:08:54;;;;;;;4.13;2.30;;;10.40;99.90;;;;;;5104571;27;20418;-72
2023/04/26 00:11:21;;;;;;;4.35;2.33;;;10.40;99.90;;;;;;5082166;28;20427;-73
2023/04/26 00:13:47;;;;;;;3.60;2.50;;;10.40;99.90;;;;;;5079210;28;20969;-72
2023/04/26 00:16:15;;;;;;;4.60;2.65;;;10.40;99.90;;;;;;5082050;28;20782;-72
2023/04/26 00:18:42;;;;;;;4.22;2.38;;;10.40;99.90;;;;;;5099133;27;20410;-72
2023/04/26 00:21:08;;;;;;;3.65;2.40;;;10.40;99.90;;;;;;5092962;27;20408;-72
2023/04/26 00:23:35;;;;;;;3.50;2.40;;;10.30;99.90;;;;;;5074917;28;20406;-72
2023/04/26 00:26:02;;;;;;;4.40;2.50;;;10.40;99.90;;;;;;5078939;28;20432;-72
2023/04/26 00:28:31;;;;;;;3.10;2.13;;;10.40;99.90;;;;;;5067806;28;20415;-72
2023/04/26 00:30:57;;;;;;;4.82;2.60;;;10.40;99.90;;;;;;5073352;28;20506;-72
2023/04/26 00:33:24;;;;;;;4.90;2.50;;;10.40;99.90;;;;;;5076920;27;20467;-72
2023/04/26 00:35:50;;;;;;;3.72;2.58;;;10.40;99.90;;;;;;5075419;28;20424;-72
2023/04/26 00:38:16;;;;;;;3.50;2.40;;;10.40;99.90;;;;;;5091013;27;20410;-73
2023/04/26 00:40:42;;;;;;;6.40;2.63;;;10.30;99.90;;;;;;5078292;27;20411;-72
2023/04/26 00:43:10;;;;;;;3.27;2.50;;;10.30;99.90;;;;;;5074652;28;20869;-72
2023/04/26 00:45:36;;;;;;;3.47;2.40;;;10.40;99.90;;;;;;5095591;27;20418;-73
2023/04/26 00:48:03;;;;;;;4.00;2.38;;;10.30;99.90;;;;;;5076103;28;20436;-72
2023/04/26 00:50:32;;;;;;;3.70;2.33;;;10.30;99.90;;;;;;5096691;27;20408;-72
2023/04/26 00:53:01;;;;;;;4.88;2.80;;;10.20;99.90;;;;;;5094463;28;20526;-72
2023/04/26 00:55:27;;;;;;;5.50;2.70;;;10.20;99.90;;;;;;5073041;28;20409;-72
2023/04/26 00:57:54;;;;;;;3.90;2.45;;;10.20;99.90;;;;;;5093164;27;20412;-72
2023/04/26 01:00:20;;;;;;;4.03;2.58;;;10.20;99.90;;;;;;5093226;28;20410;-72
2023/04/26 01:02:47;;;;;;;4.90;2.58;;;10.30;99.90;;;;;;5090749;27;20472;-72
2023/04/26 01:05:13;;;;;;;6.88;2.65;;;10.20;99.90;;;;;;5088321;28;21125;-72
2023/04/26 01:07:39;;;;;;;4.53;2.55;;;10.10;99.90;;;;;;5091692;27;20418;-72
2023/04/26 01:10:08;;;;;;;4.97;2.90;;;10.10;99.90;;;;;;5073229;28;20410;-72
2023/04/26 01:12:35;;;;;;;4.82;2.67;;;10.10;99.90;;;;;;5064413;28;20404;-72
2023/04/26 01:15:04;;;;;;;6.43;2.63;;;10.00;99.90;;;;;;5077537;28;20412;-72
2023/04/26 01:17:30;;;;;;;4.40;2.40;;;10.10;99.90;;;;;;5073605;28;20413;-72
2023/04/26 01:19:57;;;;;;;5.53;2.80;;;10.20;99.90;;;;;;5076237;28;20400;-72
2023/04/26 01:22:23;;;;;;;4.85;2.60;;;10.20;99.90;;;;;;5082183;28;20400;-72
2023/04/26 01:24:53;;;;;;;3.08;2.45;;;10.30;99.90;;;;;;5076451;28;20420;-72
2023/04/26 01:27:20;;;;;;;4.53;2.70;;;10.40;99.90;;;;;;5075646;28;20417;-72
2023/04/26 01:29:46;;;;;;;3.83;2.70;;;10.40;99.90;;;;;;5089733;28;20446;-72
2023/04/26 01:32:12;;;;;;;5.00;2.70;;;10.40;99.90;;;;;;5071411;28;20469;-72
2023/04/26 01:34:38;;;;;;;5.17;2.60;;;10.30;99.90;;;;;;5091582;28;20421;-72
2023/04/26 01:37:06;;;;;;;5.45;2.80;;;10.30;99.90;;;;;;5068947;28;21265;-72
2023/04/26 01:39:33;;;;;;;4.38;2.40;;;10.20;99.90;;;;;;5096305;28;20435;-72
2023/04/26 01:42:01;;;;;;;3.85;2.70;;;10.20;99.90;;;;;;5083586;27;20434;-72
2023/04/26 01:44:27;;;;;;;4.60;2.50;;;10.20;99.90;;;;;;5077540;28;20410;-72
2023/04/26 01:46:54;;;;;;;4.10;2.43;;;10.20;99.90;;;;;;5099413;27;20489;-72
2023/04/26 01:49:20;;;;;;;3.90;2.50;;;10.20;99.90;;;;;;5094337;27;20463;-72
2023/04/26 01:51:46;;;;;;;4.00;2.47;;;10.30;99.90;;;;;;5096749;27;20420;-72
2023/04/26 01:54:13;;;;;;;4.43;2.30;;;10.30;99.90;;;;;;5092269;28;20502;-72
2023/04/26 01:56:39;;;;;;;4.15;2.58;;;10.40;99.90;;;;;;5096228;27;20425;-72
2023/04/26 01:59:05;;;;;;;5.05;2.42;;;10.40;99.90;;;;;;5078718;28;21250;-76
2023/04/26 02:01:31;;;;;;;2.63;2.20;;;10.50;99.90;;;;;;5100382;27;20498;-75
2023/04/26 02:03:58;;;;;;;3.95;2.50;;;10.50;99.90;;;;;;5100653;27;20564;-75
2023/04/26 02:06:24;;;;;;;4.43;2.25;;;10.50;99.90;;;;;;5101416;27;20409;-75
2023/04/26 02:08:50;;;;;;;4.47;2.28;;;10.40;99.90;;;;;;5084932;27;20402;-75
2023/04/26 02:11:17;;;;;;;3.55;2.40;;;10.20;99.90;;;;;;5080298;28;20406;-75
2023/04/26 02:13:43;;;;;;;5.10;2.30;;;10.20;99.90;;;;;;5110427;27;20452;-75
2023/04/26 02:16:09;;;;;;;4.40;2.40;;;10.20;99.90;;;;;;5096422;28;20481;-76
2023/04/26 02:18:35;;;;;;;3.30;2.30;;;10.30;99.90;;;;;;5094495;27;20455;-75
2023/04/26 02:21:01;;;;;;;4.63;2.40;;;10.30;99.90;;;;;;5099174;27;20446;-75
2023/04/26 02:23:27;;;;;;;5.43;2.58;;;10.20;99.90;;;;;;5076732;28;20467;-75
2023/04/26 02:25:54;;;;;;;6.25;2.45;;;10.20;99.90;;;;;;5083417;28;20493;-75
2023/04/26 02:28:20;;;;;;;5.47;2.38;;;10.20;99.90;;;;;;5095990;27;20430;-75
2023/04/26 02:30:46;;;;;;;4.05;2.22;;;10.20;99.90;;;;;;5079576;28;20449;-75
2023/04/26 02:33:12;;;;;;;4.57;2.58;;;10.20;99.90;;;;;;5095638;27;20406;-75
2023/04/26 02:35:38;;;;;;;4.10;2.22;;;10.30;99.90;;;;;;5094766;27;21134;-75
2023/04/26 02:38:06;;;;;;;2.53;2.30;;;10.40;99.90;;;;;;5089082;28;20432;-75
2023/04/26 02:40:32;;;;;;;3.67;2.45;;;10.50;99.90;;;;;;5083687;27;20406;-75
2023/04/26 02:42:58;;;;;;;5.38;2.63;;;10.40;99.90;;;;;;5079530;28;20456;-75
2023/04/26 02:45:24;;;;;;;4.60;2.38;;;10.30;99.90;;;;;;5078181;28;20420;-75
2023/04/26 02:47:51;;;;;;;3.90;2.40;;;10.30;99.90;;;;;;5105904;27;20875;-75
2023/04/26 02:50:17;;;;;;;5.30;2.45;;;10.30;99.90;;;;;;5093593;27;20418;-75
2023/04/26 02:52:43;;;;;;;3.50;2.10;;;10.30;99.90;;;;;;5109872;27;20539;-75
2023/04/26 02:55:09;;;;;;;5.28;2.53;;;10.30;99.90;;;;;;5066517;27;20549;-75
2023/04/26 02:57:35;;;;;;;4.07;2.60;;;10.30;99.90;;;;;;5091070;27;20417;-75
2023/04/26 03:00:04;;;;;;;3.92;2.47;;;10.20;99.90;;;;;;5080041;28;20413;-75
2023/04/26 03:02:31;;;;;;;5.00;2.40;;;10.20;99.90;;;;;;5099317;27;20484;-75
2023/04/26 03:04:57;;;;;;;6.95;2.70;;;10.30;99.90;;;;;;5062383;28;20460;-75
2023/04/26 03:07:23;;;;;;;4.30;2.30;;;10.30;99.90;;;;;;5111711;27;21001;-75
2023/04/26 03:09:49;;;;;;;3.58;2.15;;;10.30;99.90;;;;;;5081702;27;20404;-75
2023/04/26 03:12:15;;;;;;;4.67;2.10;;;10.30;99.90;;;;;;5094264;28;20421;-75
2023/04/26 03:14:42;;;;;;;3.05;2.17;;;10.40;99.90;;;;;;5093009;27;20969;-75
2023/04/26 03:17:08;;;;;;;5.75;2.38;;;10.40;99.90;;;;;;5095363;27;20473;-75
2023/04/26 03:19:34;;;;;;;4.13;2.10;;;10.50;99.90;;;;;;5079976;28;20404;-75
2023/04/26 03:22:00;;;;;;;3.53;2.20;;;10.40;99.90;;;;;;5082963;27;20909;-75
2023/04/26 03:24:27;;;;;;;4.57;2.25;;;10.30;99.90;;;;;;5062562;28;20402;-75
2023/04/26 03:26:53;;;;;;;5.13;2.40;;;10.50;99.90;;;;;;5076227;27;20445;-76
2023/04/26 03:29:19;;;;;;;3.33;2.30;;;10.60;99.90;;;;;;5096852;27;20508;-75
2023/04/26 03:31:45;;;;;;;4.07;2.20;;;10.60;99.90;;;;;;5096388;27;20408;-75
2023/04/26 03:34:12;;;;;;;5.20;2.33;;;10.70;99.90;;;;;;5088759;27;20445;-76
2023/04/26 03:36:38;;;;;;;3.40;2.13;;;10.80;99.90;;;;;;5090914;28;20501;-76
2023/04/26 03:39:05;;;;;;;3.17;2.10;;;10.90;99.90;;;;;;5085480;28;20400;-75
2023/04/26 03:41:35;;;;;;;3.08;2.20;;;11.00;99.90;;;;;;5079661;28;21058;-75
2023/04/26 03:44:02;;;;;;;3.20;2.20;;;11.10;99.90;;;;;;5096155;27;20414;-75
2023/04/26 03:46:29;;;;;;;4.60;2.50;;;11.20;99.90;;;;;;5097367;27;20622;-75
2023/04/26 03:48:55;;;;;;;4.32;2.45;;;11.40;99.90;;;;;;5097286;27;20401;-76
2023/04/26 03:51:21;;;;;;;4.32;2.30;;;11.60;99.90;;;;;;5100073;27;20481;-75
2023/04/26 03:53:47;;;;;;;3.42;2.50;;;11.80;99.90;;;;;;5090007;28;20414;-75
2023/04/26 03:56:14;;;;;;;4.85;2.67;;;12.00;99.90;;;;;;5094742;28;20412;-76
2023/04/26 03:58:41;;;;;;;4.82;2.78;;;12.20;99.90;;;;;;5078282;27;20897;-75
2023/04/26 04:01:07;;;;;;;7.10;3.22;;;12.30;99.90;;;;;;5081896;28;20417;-75
2023/04/26 04:03:33;;;;;;;4.80;2.95;;;12.30;99.90;;;;;;5089690;28;20412;-75
2023/04/26 04:05:59;;;;;;;5.80;2.90;;;12.40;99.90;;;;;;5077816;28;20439;-75
2023/04/26 04:08:26;;;;;;;4.53;2.90;;;12.50;99.90;;;;;;5096885;27;20467;-75
2023/04/26 04:10:52;;;;;;;6.65;3.05;;;12.50;99.90;;;;;;5095886;27;20402;-75
2023/04/26 04:13:18;;;;;;;4.65;2.95;;;12.60;99.90;;;;;;5100919;27;20858;-75
2023/04/26 04:15:44;;;;;;;5.47;2.83;;;12.50;99.90;;;;;;5088434;28;20402;-75
2023/04/26 04:18:10;;;;;;;5.38;2.80;;;12.50;99.90;;;;;;5080585;28;20896;-75
2023/04/26 04:20:37;;;;;;;5.32;2.80;;;12.60;99.90;;;;;;5096895;27;20427;-75
2023/04/26 04:23:06;;;;;;;6.78;3.17;;;12.60;99.90;;;;;;5085200;27;21664;-76
2023/04/26 04:25:33;;;;;;;6.15;2.85;;;12.70;99.90;;;;;;5082808;28;20417;-76
2023/04/26 04:28:02;;;;;;;3.92;2.67;;;12.80;99.90;;;;;;5099170;27;20424;-75
2023/04/26 04:30:29;;;;;;;5.63;2.77;;;12.80;99.90;;;;;;5063090;28;20411;-75
2023/04/26 04:32:58;;;;;;;4.20;2.55;;;12.90;99.90;;;;;;5102799;27;20434;-75
2023/04/26 04:35:28;;;;;;;4.67;2.60;;;13.00;99.90;;;;;;5081091;28;20672;-75
2023/04/26 04:37:57;;;;;;;3.37;2.50;;;13.00;99.90;;;;;;5097539;27;20785;-75
2023/04/26 04:40:25;;;;;;;5.47;2.53;;;13.10;99.90;;;;;;5061341;28;20503;-76
2023/04/26 04:42:52;;;;;;;4.70;2.55;;;13.10;99.90;;;;;;5076818;28;20445;-76
2023/04/26 04:45:20;;;;;;;4.63;2.53;;;13.10;99.90;;;;;;5095888;27;20769;-75
2023/04/26 04:47:46;;;;;;;5.13;2.60;;;13.20;99.90;;;;;;5099664;27;21247;-76
2023/04/26 04:50:13;;;;;;;4.03;2.50;;;13.20;99.90;;;;;;5091472;27;20405;-76
2023/04/26 04:52:40;;;;;;;3.65;2.40;;;13.30;99.90;;;;;;5102893;27;20413;-76
2023/04/26 04:55:06;;;;;;;4.90;2.67;;;13.50;99.90;;;;;;5087050;28;20417;-76
2023/04/26 04:57:32;;;;;;;3.75;2.55;;;13.50;99.90;;;;;;5092690;27;20995;-76
2023/04/26 05:00:06;;;;;;;4.15;2.45;;;13.50;99.90;;;;;;5077314;28;20463;-76
2023/04/26 05:02:32;;;;;;;5.47;2.53;;;13.70;99.90;;;;;;5074785;28;20817;-76
2023/04/26 05:05:00;;;;;;;2.78;2.20;;;13.80;99.90;;;;;;5076207;28;20417;-76
2023/04/26 05:07:26;;;;;;;5.07;2.72;;;13.80;99.90;;;;;;5099394;27;20421;-76
2023/04/26 05:09:52;;;;;;;5.32;2.75;;;13.90;99.90;;;;;;5090121;27;20744;-75
2023/04/26 05:12:18;;;;;;;5.37;2.90;;;13.90;99.90;;;;;;5100027;27;20829;-76
2023/04/26 05:14:44;;;;;;;6.03;3.17;;;13.90;99.90;;;;;;5072447;27;20719;-75
2023/04/26 05:17:11;;;;;;;5.28;2.83;;;13.90;99.90;;;;;;5104391;27;20788;-76
2023/04/26 05:19:38;;;;;;;6.30;3.15;;;13.90;99.90;;;;;;5088908;28;20414;-75
2023/04/26 05:22:04;;;;;;;4.35;2.90;;;14.00;99.90;;;;;;5093201;28;20414;-76
2023/04/26 05:24:30;;;;;;;4.95;2.97;;;14.00;99.90;;;;;;5103764;28;20412;-76
2023/04/26 05:26:58;;;;;;;6.27;3.03;;;14.00;99.90;;;;;;5090831;28;20414;-76
2023/04/26 05:29:34;;;;;;;4.53;2.97;;;14.00;99.90;;;;;;5092724;28;20772;-76
2023/04/26 05:32:00;;;;;;;5.43;2.78;;;14.10;99.90;;;;;;5089365;28;20474;-76
2023/04/26 05:34:26;;;;;;;4.70;2.50;;;14.10;99.90;;;;;;5102489;28;20420;-76
2023/04/26 05:36:52;;;;;;;4.97;2.75;;;14.30;99.90;;;;;;5098274;28;20535;-76
2023/04/26 05:39:20;;;;;;;5.25;2.85;;;14.40;99.90;;;;;;5098883;28;20947;-76
2023/04/26 05:41:46;;;;;;;5.57;2.50;;;14.40;99.90;;;;;;5100809;28;20435;-75
2023/04/26 05:44:13;;;;;;;4.70;2.50;;;14.40;99.90;;;;;;5113856;28;20884;-76
2023/04/26 05:46:40;;;;;;;4.60;2.42;;;14.40;99.90;;;;;;5093683;28;20882;-75
2023/04/26 05:49:06;;;;;;;4.10;2.60;;;14.50;99.90;;;;;;5090814;28;20417;-76
2023/04/26 05:51:32;;;;;;;3.33;2.22;;;14.50;99.90;;;;;;5086424;28;20481;-76
2023/04/26 05:53:59;;;;;;;3.20;2.30;;;14.60;99.90;;;;;;5083989;28;20751;-76
2023/04/26 05:56:25;;;;;;;3.47;2.38;;;14.70;99.90;;;;;;5092799;28;20463;-76
2023/04/26 05:58:52;;;;;;;4.60;2.40;;;14.80;99.90;;;;;;5065308;28;20435;-76
2023/04/26 06:01:19;;;;;;;3.58;2.30;;;14.80;99.90;;;;;;5086849;28;20400;-76
2023/04/26 06:03:46;;;;;;;4.65;2.53;;;14.90;99.90;;;;;;5078936;28;20410;-76
2023/04/26 06:06:12;;;;;;;5.60;2.33;;;14.90;99.90;;;;;;5084986;28;20491;-76
2023/04/26 06:08:38;;;;;;;5.03;2.30;;;15.00;99.90;;;;;;5089196;28;20426;-76
2023/04/26 06:11:05;;;;;;;5.47;2.47;;;15.20;99.90;;;;;;5102848;28;20410;-76
2023/04/26 06:13:31;;;;;;;5.25;2.75;;;15.30;99.90;;;;;;5095869;28;20420;-76
2023/04/26 06:15:58;;;;;;;4.57;2.43;;;15.30;99.90;;;;;;5084612;28;20406;-76
2023/04/26 06:18:24;;;;;;;5.25;2.42;;;15.40;99.90;;;;;;5095415;28;20488;-76
2023/04/26 06:20:51;;;;;;;3.33;2.47;;;15.50;99.90;;;;;;5098355;28;20404;-75
2023/04/26 06:23:17;;;;;;;5.27;2.60;;;15.50;99.90;;;;;;5098676;28;20408;-76
2023/04/26 06:25:44;;;;;;;4.10;2.40;;;15.50;99.90;;;;;;5097642;28;20416;-76
2023/04/26 06:28:13;;;;;;;5.07;2.63;;;15.60;99.90;;;;;;5101090;28;20419;-75
2023/04/26 06:30:42;;;;;;;5.15;2.40;;;15.70;99.90;;;;;;5080651;28;20751;-76
2023/04/26 06:33:08;;;;;;;3.90;2.40;;;15.80;99.90;;;;;;5097153;27;21479;-76
2023/04/26 06:35:40;;;;;;;6.07;2.63;;;15.90;99.90;;;;;;5104584;27;20863;-76
2023/04/26 06:38:06;;;;;;;5.32;2.63;;;15.90;99.90;;;;;;5100640;27;20945;-75
2023/04/26 06:40:35;;;;;;;5.45;2.60;;;16.00;99.90;;;;;;5081389;28;20410;-76
2023/04/26 06:43:02;;;;;;;3.92;2.50;;;16.00;99.90;;;;;;5116285;27;20406;-76
2023/04/26 06:45:29;;;;;;;3.10;2.47;;;16.50;99.90;;;;;;5110519;27;20864;-76
2023/04/26 06:47:56;;;;;;;4.22;2.40;;;16.60;99.90;;;;;;5107324;27;20418;-75
2023/04/26 06:50:22;;;;;;;3.85;2.30;;;16.70;99.90;;;;;;5106829;27;20832;-76
2023/04/26 06:52:49;;;;;;;6.40;2.53;;;16.60;99.90;;;;;;5095142;28;20548;-76
2023/04/26 06:55:15;;;;;;;3.60;2.35;;;16.60;99.90;;;;;;5088625;27;21058;-76
2023/04/26 06:57:41;;;;;;;4.57;2.40;;;16.60;99.90;;;;;;5088320;27;20405;-76
2023/04/26 07:00:09;;;;;;;5.17;2.30;;;16.60;99.90;;;;;;5094448;28;20502;-76
2023/04/26 07:02:35;;;;;;;4.72;2.00;;;16.80;99.90;;;;;;5066074;27;20409;-76
2023/04/26 07:05:01;;;;;;;4.47;2.10;;;17.10;99.90;;;;;;5079328;27;20412;-76
2023/04/26 07:07:27;;;;;;;4.82;2.30;;;17.20;99.90;;;;;;5103632;27;20404;-76
2023/04/26 07:09:54;;;;;;;5.83;2.27;;;17.20;99.90;;;;;;5081245;28;20400;-76
2023/04/26 07:12:20;;;;;;;3.45;2.00;;;17.20;99.90;;;;;;5098368;27;20440;-76
2023/04/26 07:14:46;;;;;;;3.50;2.10;;;17.30;99.90;;;;;;5078637;28;20400;-76
2023/04/26 07:17:12;;;;;;;4.05;2.20;;;17.30;99.90;;;;;;5104039;27;20832;-76
2023/04/26 07:19:39;;;;;;;4.47;2.05;;;17.30;99.90;;;;;;5094797;28;20892;-76
2023/04/26 07:22:05;;;;;;;3.63;2.10;;;17.30;99.90;;;;;;5096918;28;20962;-76
2023/04/26 07:24:32;;;;;;;4.80;2.20;;;17.40;99.90;;;;;;5082825;28;20520;-76
2023/04/26 07:26:58;;;;;;;4.43;2.13;;;17.40;99.90;;;;;;5091662;27;20418;-76
2023/04/26 07:29:25;;;;;;;4.95;2.30;;;17.30;99.90;;;;;;5104138;27;20586;-76
2023/04/26 07:31:52;;;;;;;8.48;2.40;;;17.40;99.90;;;;;;5090670;27;20414;-76
2023/04/26 07:34:18;;;;;;;7.10;2.42;;;17.40;99.90;;;;;;5082161;27;20402;-76
2023/04/26 07:36:44;;;;;;;5.10;2.20;;;17.50;99.90;;;;;;5096815;27;20511;-76
2023/04/26 07:39:11;;;;;;;7.95;2.20;;;17.60;99.90;;;;;;5096764;28;20909;-76
2023/04/26 07:41:37;;;;;;;5.83;2.13;;;17.90;99.90;;;;;;5081475;28;20427;-76
2023/04/26 07:44:04;;;;;;;6.60;2.30;;;17.90;99.90;;;;;;5099071;27;20418;-76
2023/04/26 07:46:32;;;;;;;6.20;1.90;;;18.10;99.90;;;;;;5094638;27;20416;-76
2023/04/26 07:48:58;;;;;;;5.78;2.08;;;18.40;99.90;;;;;;5087137;27;20877;-76
2023/04/26 07:51:26;;;;;;;6.05;2.20;;;18.60;99.90;;;;;;5083950;27;20737;-76
2023/04/26 07:53:54;;;;;;;6.90;2.30;;;18.60;99.90;;;;;;5091228;28;20408;-76
2023/04/26 07:56:22;;;;;;;6.73;2.17;;;18.50;99.90;;;;;;5063133;28;20851;-76
2023/04/26 07:58:49;;;;;;;7.05;2.45;;;18.60;99.90;;;;;;5103843;27;20771;-76
2023/04/26 08:01:15;;;;;;;6.45;2.55;;;18.70;99.90;;;;;;5085012;28;20498;-76
2023/04/26 08:03:42;;;;;;;10.75;2.47;;;18.70;99.90;;;;;;5085946;28;20404;-76
2023/04/26 08:06:08;;;;;;;7.40;2.25;;;18.80;99.90;;;;;;5074075;28;20412;-76
2023/04/26 08:08:43;;;;;;;7.40;2.38;;;18.80;99.90;;;;;;5093549;27;20412;-76
2023/04/26 08:11:10;;;;;;;6.30;2.38;;;18.90;99.90;;;;;;5075193;28;20420;-76
2023/04/26 08:13:36;;;;;;;6.40;2.40;;;19.10;99.90;;;;;;5093189;27;20498;-76
2023/04/26 08:16:03;;;;;;;8.90;2.60;;;19.20;99.90;;;;;;5067732;28;20470;-76
2023/04/26 08:18:29;;;;;;;8.27;2.75;;;19.30;99.90;;;;;;5103714;27;20418;-76
2023/04/26 08:20:55;;;;;;;8.77;2.50;;;19.30;99.90;;;;;;5079903;27;20897;-76
2023/04/26 08:23:22;;;;;;;7.78;2.63;;;19.40;99.90;;;;;;5091292;27;20441;-76
2023/04/26 08:25:51;;;;;;;7.82;2.70;;;19.50;99.90;;;;;;5077663;28;20429;-76
2023/04/26 08:28:17;;;;;;;8.47;2.53;;;19.60;99.90;;;;;;5066877;28;20414;-76
2023/04/26 08:30:43;;;;;;;9.10;2.72;;;19.60;99.90;;;;;;5093019;27;20416;-76
2023/04/26 08:33:09;;;;;;;10.18;2.60;;;19.60;99.90;;;;;;5090895;27;20744;-76
2023/04/26 08:35:36;;;;;;;10.15;2.85;;;19.70;99.90;;;;;;5067505;28;20404;-76
2023/04/26 08:38:02;;;;;;;10.30;2.63;;;19.70;99.90;;;;;;5065224;28;20624;-76
2023/04/26 08:40:29;;;;;;;10.32;2.83;;;19.70;99.90;;;;;;5088684;27;20880;-76
2023/04/26 08:42:56;;;;;;;12.40;2.80;;;19.80;99.90;;;;;;5078685;28;20414;-72
2023/04/26 08:45:23;;;;;;;10.25;2.92;;;20.00;99.90;;;;;;5101587;27;20507;-72
2023/04/26 08:47:55;;;;;;;7.40;2.50;;;20.00;99.90;;;;;;5094246;27;20463;-73
2023/04/26 08:50:23;;;;;;;9.40;2.50;;;20.00;99.90;;;;;;5103659;28;20409;-73
2023/04/26 08:52:51;;;;;;;11.33;2.80;;;20.20;99.90;;;;;;5059117;28;20646;-72
2023/04/26 08:55:20;;;;;;;11.02;2.50;;;20.40;99.90;;;;;;5080066;28;20396;-72
2023/04/26 08:57:48;;;;;;;9.35;2.88;;;20.40;99.90;;;;;;5085492;28;20446;-73
2023/04/26 09:00:17;;;;;;;7.43;2.40;;;20.50;99.90;;;;;;5100982;27;20427;-72
2023/04/26 09:02:51;;;;;;;7.00;2.80;;;20.60;99.90;;;;;;5085619;27;20398;-73
2023/04/26 09:05:26;;;;;;;7.55;2.95;;;20.70;99.90;;;;;;5101691;27;20404;-73
2023/04/26 09:08:04;;;;;;;10.50;2.58;;;20.80;99.90;;;;;;5103847;27;20754;-73
2023/04/26 09:10:31;;;;;;;7.38;2.60;;;20.90;99.90;;;;;;5096074;27;20540;-73
2023/04/26 09:12:57;;;;;;;8.13;2.50;;;21.00;99.90;;;;;;5095633;27;20404;-73
2023/04/26 09:15:26;;;;;;;13.73;2.88;;;21.20;99.90;;;;;;5095038;28;20463;-73
2023/04/26 09:17:53;;;;;;;5.80;2.13;;;21.20;99.90;;;;;;5085558;28;20193;-73
2023/04/26 09:20:27;;;;;;;10.93;2.58;;;21.30;99.90;;;;;;5099590;28;20725;-73
2023/04/26 09:23:06;;;;;;;10.10;2.67;;;21.30;99.90;;;;;;5110037;27;20345;-73
2023/04/26 09:25:33;;;;;;;7.17;2.23;;;21.40;99.90;;;;;;5082500;28;20667;-73
2023/04/26 09:28:01;;;;;;;9.80;2.40;;;21.50;99.90;;;;;;5081813;28;20204;-73
2023/04/26 09:30:28;;;;;;;8.80;2.10;;;21.50;99.90;;;;;;5085486;28;20180;-73
2023/04/26 09:33:02;;;;;;;9.30;2.70;;;21.60;99.90;;;;;;5092179;28;20190;-73
2023/04/26 09:35:38;;;;;;;5.83;1.90;;;21.60;99.90;;;;;;5095050;28;20193;-73
2023/04/26 09:38:13;;;;;;;11.33;2.50;;;21.70;99.90;;;;;;5070191;28;20195;-73
2023/04/26 09:40:43;;;;;;;8.93;2.57;;;21.90;99.90;;;;;;5084100;28;20271;-73
2023/04/26 09:43:18;;;;;;;8.47;2.30;;;22.00;99.90;;;;;;5106456;28;20736;-73
2023/04/26 09:45:55;;;;;;;11.97;2.50;;;22.20;99.90;;;;;;5094928;28;20174;-73
2023/04/26 09:48:30;;;;;;;10.27;2.40;;;22.30;99.90;;;;;;5100691;28;20237;-73
2023/04/26 09:51:09;;;;;;;5.78;2.00;;;22.40;99.90;;;;;;5082784;28;20699;-73
2023/04/26 09:53:45;;;;;;;11.63;2.47;;;22.40;99.90;;;;;;5079142;28;20170;-73
2023/04/26 09:56:19;;;;;;;4.77;1.90;;;22.50;99.90;;;;;;5103864;28;20214;-73
2023/04/26 09:58:45;;;;;;;11.63;2.40;;;22.40;99.90;;;;;;5102737;28;20198;-73
2023/04/26 10:01:16;;;;;;;6.47;2.10;;;22.50;99.90;;;;;;5087915;28;20184;-73
2023/04/26 10:03:43;;;;;;;8.57;2.07;;;22.60;99.90;;;;;;5084327;27;20168;-73
2023/04/26 10:06:11;;;;;;;14.07;2.05;;;22.60;99.90;;;;;;5098842;27;20276;-73
2023/04/26 10:08:38;;;;;;;7.70;2.50;;;22.60;99.90;;;;;;5101577;28;20537;-73
2023/04/26 10:11:11;;;;;;;13.23;2.97;;;22.50;99.90;;;;;;5074211;28;20165;-73
2023/04/26 10:13:40;;;;;;;6.00;1.90;;;22.50;99.90;;;;;;5087586;28;20181;-73
2023/04/26 10:16:08;;;;;;;4.17;1.87;;;22.50;99.90;;;;;;5093154;28;20242;-73
2023/04/26 10:18:35;;;;;;;8.20;2.03;;;22.60;99.90;;;;;;5097276;28;20226;-73
2023/04/26 10:21:32;;;;;;;6.27;1.93;;;22.80;99.90;;;;;;5089098;28;20277;-73
2023/04/26 10:24:00;;;;;;;11.30;2.20;;;23.00;99.90;;;;;;5087514;28;20702;-73
2023/04/26 10:26:51;;;;;;;9.25;2.13;;;22.90;99.90;;;;;;5109968;27;20190;-73
2023/04/26 10:29:26;;;;;;;9.20;1.80;;;22.80;99.90;;;;;;5103744;27;20173;-73
2023/04/26 10:32:04;;;;;;;8.52;2.30;;;22.70;99.90;;;;;;5091591;27;20201;-73
2023/04/26 10:34:34;;;;;;;5.45;2.13;;;22.60;99.90;;;;;;5098431;28;20273;-73
2023/04/26 10:37:15;;;;;;;7.75;1.90;;;22.70;99.90;;;;;;5083431;28;20226;-73
2023/04/26 10:39:46;;;;;;;13.52;2.53;;;22.70;99.90;;;;;;5113619;27;20216;-73
2023/04/26 10:42:31;;;;;;;13.90;2.30;;;22.70;99.90;;;;;;5090245;28;20189;-73
2023/04/26 10:45:23;;;;;;;11.00;2.78;;;22.60;99.90;;;;;;5097884;28;20186;-73
2023/04/26 10:47:49;;;;;;;10.87;2.07;;;22.50;99.90;;;;;;5101808;28;20210;-73
2023/04/26 10:50:16;;;;;;;5.60;1.80;;;22.40;99.90;;;;;;5082491;28;20250;-73
2023/04/26 10:53:02;;;;;;;7.67;2.20;;;22.40;99.90;;;;;;5107542;27;20189;-73
2023/04/26 10:55:41;;;;;;;9.30;1.87;;;22.30;99.90;;;;;;5079069;28;20186;-73
2023/04/26 10:58:31;;;;;;;10.02;2.42;;;22.30;99.90;;;;;;5079274;28;20197;-73
2023/04/26 11:01:12;;;;;;;18.83;2.27;;;22.30;99.90;;;;;;5085244;28;20295;-73
2023/04/26 11:03:40;;;;;;;13.50;2.30;;;22.20;99.90;;;;;;5103294;28;20941;-73
2023/04/26 11:06:08;;;;;;;6.07;2.00;;;22.20;99.90;;;;;;5078118;28;20729;-73
2023/04/26 11:08:35;;;;;;;4.83;1.90;;;22.20;99.90;;;;;;5087782;28;20212;-73
2023/04/26 11:11:02;;;;;;;9.30;2.20;;;22.20;99.90;;;;;;5086345;27;20217;-73
2023/04/26 11:13:36;;;;;;;7.87;2.10;;;22.20;99.90;;;;;;5092169;28;20181;-73
2023/04/26 11:16:06;;;;;;;5.63;2.07;;;22.20;99.90;;;;;;5065350;28;20173;-73
2023/04/26 11:18:35;;;;;;;9.43;1.90;;;22.10;99.90;;;;;;5083881;28;20549;-73
2023/04/26 11:21:02;;;;;;;7.25;1.83;;;22.10;99.90;;;;;;5089167;27;20181;-73
2023/04/26 11:23:30;;;;;;;7.33;2.10;;;22.10;99.90;;;;;;5087266;28;20182;-73
2023/04/26 11:26:05;;;;;;;6.73;2.40;;;22.00;99.90;;;;;;5083490;28;20185;-73
2023/04/26 11:28:34;;;;;;;8.93;1.90;;;22.00;99.90;;;;;;5114501;27;20207;-73
2023/04/26 11:31:02;;;;;;;7.10;2.10;;;21.90;99.90;;;;;;5104836;28;20181;-73
2023/04/26 11:33:29;;;;;;;8.10;1.80;;;22.00;99.90;;;;;;5106672;27;20186;-72
2023/04/26 11:35:57;;;;;;;5.72;2.00;;;22.10;99.90;;;;;;5101383;28;20193;-73
2023/04/26 11:38:26;;;;;;;8.43;1.87;;;22.00;99.90;;;;;;5090991;28;20185;-73
2023/04/26 11:41:01;;;;;;;6.30;2.03;;;22.00;99.90;;;;;;5103131;27;20197;-73
2023/04/26 11:43:38;;;;;;;5.40;1.70;;;21.90;99.90;;;;;;5111344;27;20189;-73
2023/04/26 11:46:06;;;;;;;7.53;2.07;;;21.90;99.90;;;;;;5090500;28;20193;-73
2023/04/26 11:48:35;;;;;;;9.13;2.17;;;21.90;99.90;;;;;;5106976;27;20198;-73
2023/04/26 11:51:05;;;;;;;6.43;1.70;;;21.80;99.90;;;;;;5082393;28;20478;-73
2023/04/26 11:53:37;;;;;;;3.90;1.57;;;21.80;99.90;;;;;;5087811;28;20181;-73
2023/04/26 11:56:16;;;;;;;6.20;1.80;;;21.60;99.90;;;;;;5105459;27;20185;-73
2023/04/26 11:58:52;;;;;;;4.30;1.77;;;21.70;99.90;;;;;;5098117;28;20914;-73
2023/04/26 12:01:26;;;;;;;7.80;1.70;;;21.80;99.90;;;;;;5115487;27;20640;-73
2023/04/26 12:03:54;;;;;;;4.70;1.70;;;21.70;99.90;;;;;;5088320;28;20181;-72
2023/04/26 12:06:29;;;;;;;4.70;1.63;;;21.60;99.90;;;;;;5103987;28;20330;-73
2023/04/26 12:08:56;;;;;;;7.67;2.23;;;21.70;99.90;;;;;;5120436;27;20200;-73
2023/04/26 12:11:22;;;;;;;5.10;1.70;;;21.80;99.90;;;;;;5076144;28;20505;-73
2023/04/26 12:13:49;;;;;;;7.53;1.77;;;21.80;99.90;;;;;;5082305;28;20181;-73
2023/04/26 12:16:15;;;;;;;6.37;1.60;;;21.70;99.90;;;;;;5091141;28;20186;-73
2023/04/26 12:18:49;;;;;;;6.07;1.70;;;21.60;99.90;;;;;;5084340;27;20840;-73
2023/04/26 12:21:15;;;;;;;6.60;1.77;;;21.40;99.90;;;;;;5089400;28;20819;-73
2023/04/26 12:23:46;;;;;;;4.87;1.70;;;21.30;99.90;;;;;;5097739;27;20509;-73
2023/04/26 12:26:13;;;;;;;11.20;2.20;;;21.20;99.90;;;;;;5098958;28;20182;-73
2023/04/26 12:28:40;;;;;;;6.00;1.43;;;21.20;99.90;;;;;;5079151;28;20561;-73
2023/04/26 12:31:07;;;;;;;5.37;1.90;;;21.20;99.60;;;;;;5083678;28;20193;-73
2023/04/26 12:33:34;;;;;;;7.27;2.00;;;21.20;99.90;;;;;;5096209;28;20234;-73
2023/04/26 12:36:12;;;;;;;5.17;1.70;;;21.20;99.90;;;;;;5085460;28;20257;-73
2023/04/26 12:38:41;;;;;;;5.83;1.63;;;21.20;99.90;;;;;;5113857;27;20185;-73
2023/04/26 12:41:08;;;;;;;2.90;1.40;;;21.00;99.90;;;;;;5118281;27;20196;-73
2023/04/26 12:43:35;;;;;;;8.60;1.80;;;21.10;99.90;;;;;;5081755;28;20474;-73
2023/04/26 12:46:01;;;;;;;2.77;1.40;;;21.10;99.90;;;;;;5082423;28;20664;-73
2023/04/26 12:48:27;;;;;;;4.57;1.73;;;21.00;99.90;;;;;;5082315;28;20541;-73
2023/04/26 12:50:54;;;;;;;5.70;1.73;;;20.90;99.30;;;;;;5114217;27;20182;-73